createdAt,value
2019-01-08T00:04:17.404Z,8.03
2019-01-08T00:09:22.485Z,6.43
2019-01-08T00:14:27.174Z,6.23
2019-01-08T00:19:31.874Z,6.77
2019-01-08T00:24:36.939Z,5.70
2019-01-08T00:29:41.660Z,5.72
2019-01-08T00:34:46.396Z,5.63
2019-01-08T00:39:51.054Z,6.43
2019-01-08T00:44:55.784Z,5.23
2019-01-08T00:50:00.505Z,5.10
2019-01-08T00:55:05.902Z,5.45
2019-01-08T01:00:11.387Z,4.80
2019-01-08T01:05:16.082Z,4.55
2019-01-08T01:10:20.825Z,4.67
2019-01-08T01:15:25.467Z,4.20
2019-01-08T01:20:30.184Z,4.20
2019-01-08T01:25:34.861Z,4.13
2019-01-08T01:30:39.574Z,4.27
2019-01-08T01:36:02.231Z,5.20
2019-01-08T01:41:06.945Z,5.43
2019-01-08T01:46:11.718Z,4.60
2019-01-08T01:51:16.432Z,4.83
2019-01-08T01:56:21.173Z,4.60
2019-01-08T02:01:25.872Z,4.70
2019-01-08T02:06:30.553Z,4.53
2019-01-08T02:11:35.228Z,4.60
2019-01-08T02:16:39.918Z,4.53
2019-01-08T02:21:44.681Z,4.67
2019-01-08T02:26:49.400Z,4.40
2019-01-08T02:31:54.088Z,4.90
2019-01-08T02:36:58.801Z,4.80
2019-01-08T02:42:04.383Z,4.70
2019-01-08T02:47:09.073Z,4.63
2019-01-08T02:52:13.776Z,4.45
2019-01-08T02:57:18.435Z,4.80
2019-01-08T03:02:23.218Z,4.50
2019-01-08T03:07:27.902Z,4.20
2019-01-08T03:12:32.588Z,4.07
2019-01-08T03:17:37.238Z,4.67
2019-01-08T03:22:41.933Z,3.80
2019-01-08T03:27:46.607Z,4.37
2019-01-08T03:32:51.604Z,4.03
2019-01-08T03:37:56.288Z,3.90
2019-01-08T03:43:01.450Z,3.93
2019-01-08T03:48:06.134Z,3.60
2019-01-08T03:53:10.822Z,3.37
2019-01-08T03:58:15.634Z,3.20
2019-01-08T04:03:20.352Z,3.53
2019-01-08T04:08:25.303Z,3.10
2019-01-08T04:13:30.044Z,3.00
2019-01-08T04:18:34.722Z,3.10
2019-01-08T04:23:39.426Z,3.50
2019-01-08T04:28:44.182Z,3.20
2019-01-08T04:33:48.864Z,3.00
2019-01-08T04:38:53.760Z,3.37
2019-01-08T04:43:58.445Z,2.80
2019-01-08T04:49:04.621Z,2.50
2019-01-08T04:54:09.301Z,2.80
2019-01-08T04:59:14.010Z,2.43
2019-01-08T05:04:18.719Z,2.20
2019-01-08T05:09:23.466Z,2.53
2019-01-08T05:14:28.319Z,2.43
2019-01-08T05:19:33.033Z,2.50
2019-01-08T05:24:37.811Z,2.20
2019-01-08T05:29:42.833Z,2.47
2019-01-08T05:34:47.582Z,2.50
2019-01-08T05:39:52.313Z,2.30
2019-01-08T05:44:57.095Z,2.47
2019-01-08T05:50:02.006Z,2.00
2019-01-08T05:55:07.020Z,2.50
2019-01-08T06:00:16.377Z,2.83
2019-01-08T06:05:18.487Z,2.33
2019-01-08T06:10:23.885Z,2.20
2019-01-08T06:15:28.754Z,2.63
2019-01-08T06:20:33.515Z,2.17
2019-01-08T06:25:38.356Z,1.90
2019-01-08T06:30:43.193Z,2.50
2019-01-08T06:35:47.998Z,2.13
2019-01-08T06:40:57.514Z,2.13
2019-01-08T06:45:59.380Z,2.37
2019-01-08T06:51:04.518Z,2.20
2019-01-08T06:56:09.232Z,2.17
2019-01-08T07:01:13.916Z,2.07
2019-01-08T07:06:18.690Z,1.90
2019-01-08T07:11:23.380Z,2.00
2019-01-08T07:16:28.125Z,1.93
2019-01-08T07:21:32.811Z,1.77
2019-01-08T07:26:37.534Z,2.00
2019-01-08T07:31:42.222Z,2.47
2019-01-08T07:36:46.887Z,2.73
2019-01-08T07:41:51.863Z,2.20
2019-01-08T07:46:56.576Z,2.63
2019-01-08T07:52:01.245Z,2.20
2019-01-08T07:57:05.979Z,2.13
2019-01-08T08:02:10.671Z,1.77
2019-01-08T08:07:16.368Z,1.70
2019-01-08T08:12:21.125Z,1.97
2019-01-08T08:17:26.103Z,1.73
2019-01-08T08:22:30.870Z,1.70
2019-01-08T08:27:35.651Z,1.60
2019-01-08T08:32:40.383Z,1.83
2019-01-08T08:37:45.437Z,2.00
2019-01-08T08:42:50.451Z,1.87
2019-01-08T08:47:56.231Z,2.10
2019-01-08T08:53:01.060Z,1.63
2019-01-08T08:58:05.726Z,2.03
2019-01-08T09:03:10.387Z,1.80
2019-01-08T09:08:15.150Z,1.80
2019-01-08T09:13:19.884Z,1.67
2019-01-08T09:18:24.593Z,1.50
2019-01-08T09:23:29.396Z,2.00
2019-01-08T09:28:34.104Z,1.77
2019-01-08T09:33:38.835Z,1.70
2019-01-08T09:38:46.436Z,2.27
2019-01-08T09:43:52.515Z,1.70
2019-01-08T09:48:57.248Z,1.53
2019-01-08T09:54:01.955Z,1.87
2019-01-08T09:59:06.850Z,1.60
2019-01-08T10:04:12.584Z,1.80
2019-01-08T10:09:17.308Z,1.60
2019-01-08T10:14:21.991Z,1.80
2019-01-08T10:19:27.031Z,1.23
2019-01-08T10:24:31.805Z,1.37
2019-01-08T10:29:36.507Z,1.80
2019-01-08T10:34:41.512Z,1.87
2019-01-08T10:39:46.249Z,1.70
2019-01-08T10:44:50.962Z,2.10
2019-01-08T10:49:55.641Z,1.40
2019-01-08T10:55:00.373Z,1.23
2019-01-08T11:00:05.879Z,1.20
2019-01-08T11:05:10.657Z,1.50
2019-01-08T11:10:15.463Z,1.50
2019-01-08T11:15:20.163Z,1.30
2019-01-08T11:20:24.930Z,1.20
2019-01-08T11:25:29.663Z,1.50
2019-01-08T11:30:34.371Z,1.30
2019-01-08T11:35:42.352Z,1.30
2019-01-08T11:40:45.430Z,1.33
2019-01-08T11:45:50.127Z,1.40
2019-01-08T11:50:54.855Z,1.00
2019-01-08T11:55:59.529Z,1.20
2019-01-08T12:01:04.423Z,0.83
2019-01-08T12:06:09.160Z,1.20
2019-01-08T12:11:14.725Z,1.47
2019-01-08T12:16:19.400Z,1.27
2019-01-08T12:21:24.079Z,1.20
2019-01-08T12:26:29.087Z,1.33
2019-01-08T12:31:33.872Z,1.27
2019-01-08T12:36:38.578Z,1.10
2019-01-08T12:41:43.316Z,1.30
2019-01-08T12:46:48.008Z,1.47
2019-01-08T12:51:53.680Z,1.50
2019-01-08T12:56:58.354Z,1.30
2019-01-08T13:02:03.052Z,1.10
2019-01-08T13:07:07.745Z,1.30
2019-01-08T13:12:12.419Z,1.53
2019-01-08T13:17:17.111Z,1.27
2019-01-08T13:22:21.780Z,1.40
2019-01-08T13:27:26.480Z,1.50
2019-01-08T13:32:31.269Z,1.60
2019-01-08T13:37:35.969Z,1.20
2019-01-08T13:42:40.658Z,1.37
2019-01-08T13:47:45.415Z,1.17
2019-01-08T13:52:50.131Z,1.50
2019-01-08T13:57:54.795Z,0.90
2019-01-08T14:02:59.486Z,1.87
2019-01-08T14:08:04.481Z,0.90
2019-01-08T14:13:09.157Z,0.90
2019-01-08T14:18:13.878Z,0.80
2019-01-08T14:23:18.575Z,0.70
2019-01-08T14:28:23.271Z,1.00
2019-01-08T14:33:28.023Z,1.20
2019-01-08T14:38:32.866Z,1.10
2019-01-08T14:43:37.588Z,0.90
2019-01-08T14:48:42.305Z,1.10
2019-01-08T14:53:46.995Z,1.30
2019-01-08T14:58:51.695Z,1.10
2019-01-08T15:03:57.478Z,1.10
2019-01-08T15:09:02.258Z,1.70
2019-01-08T15:14:07.027Z,1.13
2019-01-08T15:19:11.912Z,1.30
2019-01-08T15:24:16.741Z,2.17
2019-01-08T15:29:21.490Z,1.50
2019-01-08T15:34:26.227Z,1.47
2019-01-08T15:39:30.902Z,1.67
2019-01-08T15:44:35.978Z,2.10
2019-01-08T15:49:41.757Z,2.30
2019-01-08T15:54:46.456Z,2.27
2019-01-08T15:59:51.202Z,2.20
2019-01-08T16:04:55.917Z,3.07
2019-01-08T16:10:00.610Z,2.40
2019-01-08T16:15:05.692Z,2.20
2019-01-08T16:20:11.476Z,3.55
2019-01-08T16:25:16.287Z,2.33
2019-01-08T16:30:21.022Z,1.77
2019-01-08T16:35:25.756Z,1.30
2019-01-08T16:40:30.540Z,1.67
2019-01-08T16:45:35.312Z,1.53
2019-01-08T16:50:40.025Z,1.80
2019-01-08T16:55:44.812Z,2.10
2019-01-08T17:00:49.625Z,1.30
2019-01-08T17:05:54.340Z,1.50
2019-01-08T17:10:59.101Z,1.30
2019-01-08T17:16:04.552Z,1.80
2019-01-08T17:21:09.472Z,1.80
2019-01-08T17:26:14.460Z,1.80
2019-01-08T17:31:20.134Z,1.77
2019-01-08T17:36:25.131Z,1.77
2019-01-08T17:41:29.823Z,1.50
2019-01-08T17:46:34.893Z,1.30
2019-01-08T17:51:39.595Z,1.83
2019-01-08T17:56:44.432Z,1.50
2019-01-08T18:02:09.333Z,1.23
2019-01-08T18:07:14.407Z,1.40
2019-01-08T18:12:19.103Z,1.20
2019-01-08T18:17:24.699Z,1.40
2019-01-08T18:22:30.261Z,1.40
2019-01-08T18:27:34.943Z,1.20
2019-01-08T18:32:40.042Z,1.10
2019-01-08T18:37:44.731Z,1.07
2019-01-08T18:42:49.436Z,1.40
2019-01-08T18:47:54.176Z,1.00
2019-01-08T18:52:58.884Z,1.53
2019-01-08T18:58:04.507Z,1.03
2019-01-08T19:03:09.275Z,1.20
2019-01-08T19:08:14.344Z,1.00
2019-01-08T19:13:19.118Z,1.40
2019-01-08T19:18:24.128Z,1.10
2019-01-08T19:23:28.858Z,1.20
2019-01-08T19:28:33.750Z,1.03
2019-01-08T19:33:38.537Z,1.10
2019-01-08T19:38:43.378Z,1.10
2019-01-08T19:43:48.346Z,1.30
2019-01-08T19:48:53.150Z,1.20
2019-01-08T19:53:57.844Z,1.40
2019-01-08T19:59:02.967Z,1.37
2019-01-08T20:04:07.725Z,1.37
2019-01-08T20:09:12.425Z,1.57
2019-01-08T20:14:18.100Z,1.40
2019-01-08T20:19:22.792Z,0.90
2019-01-08T20:24:27.486Z,1.30
2019-01-08T20:29:32.194Z,0.90
2019-01-08T20:34:36.903Z,1.10
2019-01-08T20:39:41.623Z,1.00
2019-01-08T20:44:46.394Z,1.20
2019-01-08T20:49:51.079Z,1.17
2019-01-08T20:54:55.804Z,1.17
2019-01-08T21:00:00.563Z,1.00
2019-01-08T21:05:06.460Z,1.30
2019-01-08T21:10:11.314Z,1.20
2019-01-08T21:15:16.383Z,1.10
2019-01-08T21:20:21.086Z,1.20
2019-01-08T21:25:25.939Z,1.40
2019-01-08T21:30:30.738Z,1.10
2019-01-08T21:35:35.515Z,1.20
2019-01-08T21:40:40.183Z,1.50
2019-01-08T21:45:45.889Z,1.17
2019-01-08T21:50:50.689Z,1.23
2019-01-08T21:55:55.523Z,1.30
2019-01-08T22:01:00.217Z,1.30
2019-01-08T22:06:04.993Z,1.30
2019-01-08T22:11:09.722Z,1.10
2019-01-08T22:16:14.688Z,1.10
2019-01-08T22:21:19.386Z,1.00
2019-01-08T22:26:24.071Z,1.10
2019-01-08T22:31:28.793Z,1.00
2019-01-08T22:36:33.503Z,1.10
2019-01-08T22:41:38.274Z,1.00
2019-01-08T22:46:43.064Z,1.20
2019-01-08T22:51:47.768Z,1.00
2019-01-08T22:56:52.548Z,1.00
2019-01-08T23:01:57.321Z,1.00
2019-01-08T23:07:02.016Z,1.10
2019-01-08T23:12:06.800Z,0.80
2019-01-08T23:17:11.537Z,0.90
2019-01-08T23:22:16.380Z,0.85
2019-01-08T23:27:21.545Z,0.80
2019-01-08T23:32:26.249Z,0.80
2019-01-08T23:37:30.982Z,0.97
2019-01-08T23:42:35.833Z,0.80
2019-01-08T23:47:40.615Z,0.80
2019-01-08T23:53:15.787Z,0.83
2019-01-08T23:58:20.507Z,0.80
